sensor_id;sensor_type;location;lat;lon;timestamp;temperature;humidity
12315;DHT22;23886;46.614;14.276;2023-02-23T00:00:18;-0.40;99.90
12315;DHT22;23886;46.614;14.276;2023-02-23T00:02:49;-0.50;99.90
12315;DHT22;23886;46.614;14.276;2023-02-23T00:05:16;-0.50;99.90
12315;DHT22;23886;46.614;14.276;2023-02-23T00:07:44;-0.50;99.90
12315;DHT22;23886;46.614;14.276;2023-02-23T00:10:13;-0.60;99.90
12315;DHT22;23886;46.614;14.276;2023-02-23T00:12:42;-0.60;99.90
12315;DHT22;23886;46.614;14.276;2023-02-23T00:15:10;-0.50;99.90
12315;DHT22;23886;46.614;14.276;2023-02-23T00:17:38;-0.50;99.90
12315;DHT22;23886;46.614;14.276;2023-02-23T00:20:10;-0.60;99.90
12315;DHT22;23886;46.614;14.276;2023-02-23T00:22:38;-0.60;99.90
12315;DHT22;23886;46.614;14.276;2023-02-23T00:25:07;-0.60;99.90
12315;DHT22;23886;46.614;14.276;2023-02-23T00:27:35;-0.50;99.90
12315;DHT22;23886;46.614;14.276;2023-02-23T00:30:04;-0.60;99.90
12315;DHT22;23886;46.614;14.276;2023-02-23T00:32:32;-0.60;99.90
12315;DHT22;23886;46.614;14.276;2023-02-23T00:35:00;-0.70;99.90
12315;DHT22;23886;46.614;14.276;2023-02-23T00:37:29;-0.70;99.90
12315;DHT22;23886;46.614;14.276;2023-02-23T00:39:56;-0.70;99.90
12315;DHT22;23886;46.614;14.276;2023-02-23T00:42:23;-0.80;99.90
12315;DHT22;23886;46.614;14.276;2023-02-23T00:44:54;-0.80;99.90
12315;DHT22;23886;46.614;14.276;2023-02-23T00:47:21;-0.80;99.90
12315;DHT22;23886;46.614;14.276;2023-02-23T00:49:48;-0.80;99.90
12315;DHT22;23886;46.614;14.276;2023-02-23T00:52:15;-0.90;99.90
12315;DHT22;23886;46.614;14.276;2023-02-23T00:54:44;-1.00;99.90
12315;DHT22;23886;46.614;14.276;2023-02-23T00:57:11;-1.00;99.90
12315;DHT22;23886;46.614;14.276;2023-02-23T00:59:38;-1.00;99.90
12315;DHT22;23886;46.614;14.276;2023-02-23T01:02:04;-1.00;99.90
12315;DHT22;23886;46.614;14.276;2023-02-23T01:04:31;-1.00;99.90
12315;DHT22;23886;46.614;14.276;2023-02-23T01:06:58;-1.00;99.90
12315;DHT22;23886;46.614;14.276;2023-02-23T01:09:28;-1.00;99.90
12315;DHT22;23886;46.614;14.276;2023-02-23T01:11:57;-1.00;99.90
12315;DHT22;23886;46.614;14.276;2023-02-23T01:14:26;-1.00;99.90
12315;DHT22;23886;46.614;14.276;2023-02-23T01:16:54;-1.00;99.90
12315;DHT22;23886;46.614;14.276;2023-02-23T01:19:21;-1.00;99.90
12315;DHT22;23886;46.614;14.276;2023-02-23T01:21:48;-1.00;99.90
12315;DHT22;23886;46.614;14.276;2023-02-23T01:24:15;-1.00;99.90
12315;DHT22;23886;46.614;14.276;2023-02-23T01:26:43;-1.00;99.90
12315;DHT22;23886;46.614;14.276;2023-02-23T01:29:13;-1.00;99.90
12315;DHT22;23886;46.614;14.276;2023-02-23T01:31:42;-1.10;99.90
12315;DHT22;23886;46.614;14.276;2023-02-23T01:34:11;-1.10;99.90
12315;DHT22;23886;46.614;14.276;2023-02-23T01:36:41;-1.10;99.90
12315;DHT22;23886;46.614;14.276;2023-02-23T01:39:11;-1.20;99.90
12315;DHT22;23886;46.614;14.276;2023-02-23T01:41:38;-1.20;99.90
12315;DHT22;23886;46.614;14.276;2023-02-23T01:46:51;-1.20;99.90
12315;DHT22;23886;46.614;14.276;2023-02-23T01:49:21;-1.30;99.90
12315;DHT22;23886;46.614;14.276;2023-02-23T01:51:52;-1.20;99.90
12315;DHT22;23886;46.614;14.276;2023-02-23T01:54:25;-1.20;99.90
12315;DHT22;23886;46.614;14.276;2023-02-23T01:56:55;-1.20;99.90
12315;DHT22;23886;46.614;14.276;2023-02-23T01:59:27;-1.10;99.90
12315;DHT22;23886;46.614;14.276;2023-02-23T02:01:56;-1.20;99.90
12315;DHT22;23886;46.614;14.276;2023-02-23T02:04:23;-1.20;99.90
12315;DHT22;23886;46.614;14.276;2023-02-23T02:06:51;-1.20;99.90
12315;DHT22;23886;46.614;14.276;2023-02-23T02:09:21;-1.30;99.90
12315;DHT22;23886;46.614;14.276;2023-02-23T02:11:50;-1.30;99.90
12315;DHT22;23886;46.614;14.276;2023-02-23T02:14:22;-1.30;99.90
12315;DHT22;23886;46.614;14.276;2023-02-23T02:17:17;-1.40;99.90
12315;DHT22;23886;46.614;14.276;2023-02-23T02:20:22;-1.30;99.90
12315;DHT22;23886;46.614;14.276;2023-02-23T02:26:04;-1.40;99.90
12315;DHT22;23886;46.614;14.276;2023-02-23T02:35:11;-1.40;99.90
12315;DHT22;23886;46.614;14.276;2023-02-23T02:38:03;-1.40;99.90
12315;DHT22;23886;46.614;14.276;2023-02-23T02:40:38;-1.30;99.90
12315;DHT22;23886;46.614;14.276;2023-02-23T02:43:23;-1.20;99.90
12315;DHT22;23886;46.614;14.276;2023-02-23T02:45:55;-1.30;99.90
12315;DHT22;23886;46.614;14.276;2023-02-23T02:48:32;-1.40;99.90
12315;DHT22;23886;46.614;14.276;2023-02-23T02:51:05;-1.30;99.90
12315;DHT22;23886;46.614;14.276;2023-02-23T02:53:40;-1.20;99.90
12315;DHT22;23886;46.614;14.276;2023-02-23T02:56:10;-1.20;99.90
12315;DHT22;23886;46.614;14.276;2023-02-23T02:58:39;-1.30;99.90
12315;DHT22;23886;46.614;14.276;2023-02-23T03:01:12;-1.30;99.90
12315;DHT22;23886;46.614;14.276;2023-02-23T03:03:58;-1.30;99.90
12315;DHT22;23886;46.614;14.276;2023-02-23T03:06:45;-1.40;99.90
12315;DHT22;23886;46.614;14.276;2023-02-23T03:09:38;-1.40;99.90
12315;DHT22;23886;46.614;14.276;2023-02-23T03:12:35;-1.40;99.90
12315;DHT22;23886;46.614;14.276;2023-02-23T03:15:36;-1.50;99.90
12315;DHT22;23886;46.614;14.276;2023-02-23T03:18:36;-1.50;99.90
12315;DHT22;23886;46.614;14.276;2023-02-23T03:21:29;-1.50;99.90
12315;DHT22;23886;46.614;14.276;2023-02-23T03:24:23;-1.50;99.90
12315;DHT22;23886;46.614;14.276;2023-02-23T03:27:16;-1.50;99.90
12315;DHT22;23886;46.614;14.276;2023-02-23T03:30:06;-1.60;99.90
12315;DHT22;23886;46.614;14.276;2023-02-23T03:32:56;-1.60;99.90
12315;DHT22;23886;46.614;14.276;2023-02-23T03:35:47;-1.50;99.90
12315;DHT22;23886;46.614;14.276;2023-02-23T03:38:37;-1.60;99.90
12315;DHT22;23886;46.614;14.276;2023-02-23T03:41:24;-1.60;99.90
12315;DHT22;23886;46.614;14.276;2023-02-23T03:44:16;-1.70;99.90
12315;DHT22;23886;46.614;14.276;2023-02-23T03:47:03;-1.80;99.90
12315;DHT22;23886;46.614;14.276;2023-02-23T03:49:49;-1.80;99.90
12315;DHT22;23886;46.614;14.276;2023-02-23T03:52:38;-1.80;99.90
12315;DHT22;23886;46.614;14.276;2023-02-23T03:55:29;-1.80;99.90
12315;DHT22;23886;46.614;14.276;2023-02-23T03:58:18;-1.90;99.90
12315;DHT22;23886;46.614;14.276;2023-02-23T04:01:08;-1.90;99.90
12315;DHT22;23886;46.614;14.276;2023-02-23T04:03:55;-1.80;99.90
12315;DHT22;23886;46.614;14.276;2023-02-23T04:06:44;-1.70;99.90
12315;DHT22;23886;46.614;14.276;2023-02-23T04:09:29;-1.80;99.90
12315;DHT22;23886;46.614;14.276;2023-02-23T04:12:19;-1.90;99.90
12315;DHT22;23886;46.614;14.276;2023-02-23T04:15:09;-2.00;99.90
12315;DHT22;23886;46.614;14.276;2023-02-23T04:17:38;-2.00;99.90
12315;DHT22;23886;46.614;14.276;2023-02-23T04:20:06;-2.00;99.90
12315;DHT22;23886;46.614;14.276;2023-02-23T04:22:35;-2.00;99.90
12315;DHT22;23886;46.614;14.276;2023-02-23T04:25:03;-1.90;99.90
12315;DHT22;23886;46.614;14.276;2023-02-23T04:27:30;-1.90;99.90
12315;DHT22;23886;46.614;14.276;2023-02-23T04:29:57;-1.80;99.90
12315;DHT22;23886;46.614;14.276;2023-02-23T04:32:24;-1.80;99.90
12315;DHT22;23886;46.614;14.276;2023-02-23T04:34:53;-1.90;99.90
12315;DHT22;23886;46.614;14.276;2023-02-23T04:37:20;-2.00;99.90
12315;DHT22;23886;46.614;14.276;2023-02-23T04:39:47;-2.00;99.90
12315;DHT22;23886;46.614;14.276;2023-02-23T04:42:15;-2.00;99.90
12315;DHT22;23886;46.614;14.276;2023-02-23T04:44:42;-2.00;99.90
12315;DHT22;23886;46.614;14.276;2023-02-23T04:47:09;-2.00;99.90
12315;DHT22;23886;46.614;14.276;2023-02-23T04:49:37;-2.00;99.90
12315;DHT22;23886;46.614;14.276;2023-02-23T04:52:05;-2.00;99.90
12315;DHT22;23886;46.614;14.276;2023-02-23T04:54:32;-2.00;99.90
12315;DHT22;23886;46.614;14.276;2023-02-23T04:56:59;-2.00;99.90
12315;DHT22;23886;46.614;14.276;2023-02-23T04:59:26;-1.80;99.90
12315;DHT22;23886;46.614;14.276;2023-02-23T05:01:53;-1.80;99.90
12315;DHT22;23886;46.614;14.276;2023-02-23T05:04:20;-1.80;99.90
12315;DHT22;23886;46.614;14.276;2023-02-23T05:06:47;-1.70;99.90
12315;DHT22;23886;46.614;14.276;2023-02-23T05:09:15;-1.60;99.90
12315;DHT22;23886;46.614;14.276;2023-02-23T05:11:42;-1.50;99.90
12315;DHT22;23886;46.614;14.276;2023-02-23T05:14:09;-1.50;99.90
12315;DHT22;23886;46.614;14.276;2023-02-23T05:16:37;-1.40;99.90
12315;DHT22;23886;46.614;14.276;2023-02-23T05:19:04;-1.40;99.90
12315;DHT22;23886;46.614;14.276;2023-02-23T05:21:31;-1.30;99.90
12315;DHT22;23886;46.614;14.276;2023-02-23T05:23:58;-1.10;99.90
12315;DHT22;23886;46.614;14.276;2023-02-23T05:26:27;-1.20;99.90
12315;DHT22;23886;46.614;14.276;2023-02-23T05:28:54;-1.10;99.90
12315;DHT22;23886;46.614;14.276;2023-02-23T05:31:21;-1.00;99.90
12315;DHT22;23886;46.614;14.276;2023-02-23T05:33:49;-1.00;99.90
12315;DHT22;23886;46.614;14.276;2023-02-23T05:36:18;-1.00;99.90
12315;DHT22;23886;46.614;14.276;2023-02-23T05:38:46;-1.00;99.90
12315;DHT22;23886;46.614;14.276;2023-02-23T05:41:14;-0.90;99.90
12315;DHT22;23886;46.614;14.276;2023-02-23T05:43:43;-0.90;99.90
12315;DHT22;23886;46.614;14.276;2023-02-23T05:46:13;-0.90;99.90
12315;DHT22;23886;46.614;14.276;2023-02-23T05:48:41;-0.90;99.90
12315;DHT22;23886;46.614;14.276;2023-02-23T05:51:09;-0.80;99.90
12315;DHT22;23886;46.614;14.276;2023-02-23T05:53:37;-0.70;99.90
12315;DHT22;23886;46.614;14.276;2023-02-23T05:56:06;-0.60;99.90
12315;DHT22;23886;46.614;14.276;2023-02-23T05:58:33;-0.60;99.90
12315;DHT22;23886;46.614;14.276;2023-02-23T06:01:01;-0.50;99.90
12315;DHT22;23886;46.614;14.276;2023-02-23T06:03:29;-0.50;99.90
12315;DHT22;23886;46.614;14.276;2023-02-23T06:05:57;-0.50;99.90
12315;DHT22;23886;46.614;14.276;2023-02-23T06:08:24;-0.50;99.90
12315;DHT22;23886;46.614;14.276;2023-02-23T06:10:51;-0.50;99.90
12315;DHT22;23886;46.614;14.276;2023-02-23T06:13:18;-0.50;99.90
12315;DHT22;23886;46.614;14.276;2023-02-23T06:15:45;-0.40;99.90
12315;DHT22;23886;46.614;14.276;2023-02-23T06:18:15;-0.30;99.90
12315;DHT22;23886;46.614;14.276;2023-02-23T06:20:43;-0.30;99.90
12315;DHT22;23886;46.614;14.276;2023-02-23T06:23:11;-0.20;99.90
12315;DHT22;23886;46.614;14.276;2023-02-23T06:25:38;-0.10;99.90
12315;DHT22;23886;46.614;14.276;2023-02-23T06:28:05;-0.10;99.90
12315;DHT22;23886;46.614;14.276;2023-02-23T06:30:33;0.00;99.90
12315;DHT22;23886;46.614;14.276;2023-02-23T06:33:01;0.10;99.90
12315;DHT22;23886;46.614;14.276;2023-02-23T06:35:29;0.10;99.90
12315;DHT22;23886;46.614;14.276;2023-02-23T06:37:56;0.00;99.90
12315;DHT22;23886;46.614;14.276;2023-02-23T06:40:23;0.10;99.90
12315;DHT22;23886;46.614;14.276;2023-02-23T06:42:50;0.10;99.90
12315;DHT22;23886;46.614;14.276;2023-02-23T06:45:17;0.20;99.90
12315;DHT22;23886;46.614;14.276;2023-02-23T06:47:45;0.20;99.90
12315;DHT22;23886;46.614;14.276;2023-02-23T06:50:12;0.30;99.90
12315;DHT22;23886;46.614;14.276;2023-02-23T06:52:41;0.30;99.90
12315;DHT22;23886;46.614;14.276;2023-02-23T06:55:08;0.30;99.90
12315;DHT22;23886;46.614;14.276;2023-02-23T06:57:35;0.20;99.90
12315;DHT22;23886;46.614;14.276;2023-02-23T07:00:03;0.40;99.90
12315;DHT22;23886;46.614;14.276;2023-02-23T07:02:31;0.50;99.90
12315;DHT22;23886;46.614;14.276;2023-02-23T07:04:59;0.50;99.90
12315;DHT22;23886;46.614;14.276;2023-02-23T07:07:26;0.60;99.90
12315;DHT22;23886;46.614;14.276;2023-02-23T07:09:55;0.60;99.90
12315;DHT22;23886;46.614;14.276;2023-02-23T07:12:21;0.70;99.90
12315;DHT22;23886;46.614;14.276;2023-02-23T07:14:48;0.80;99.90
12315;DHT22;23886;46.614;14.276;2023-02-23T07:17:15;0.90;99.90
12315;DHT22;23886;46.614;14.276;2023-02-23T07:19:43;0.90;99.90
12315;DHT22;23886;46.614;14.276;2023-02-23T07:22:10;1.00;99.90
12315;DHT22;23886;46.614;14.276;2023-02-23T07:24:37;1.10;99.90
12315;DHT22;23886;46.614;14.276;2023-02-23T07:27:05;1.10;99.90
12315;DHT22;23886;46.614;14.276;2023-02-23T07:29:32;1.10;99.90
12315;DHT22;23886;46.614;14.276;2023-02-23T07:31:59;1.10;99.90
12315;DHT22;23886;46.614;14.276;2023-02-23T07:34:26;1.30;99.90
12315;DHT22;23886;46.614;14.276;2023-02-23T07:36:53;1.40;99.90
12315;DHT22;23886;46.614;14.276;2023-02-23T07:39:20;1.40;99.90
12315;DHT22;23886;46.614;14.276;2023-02-23T07:41:47;1.40;99.90
12315;DHT22;23886;46.614;14.276;2023-02-23T07:44:15;1.40;99.90
12315;DHT22;23886;46.614;14.276;2023-02-23T07:46:42;1.50;99.90
12315;DHT22;23886;46.614;14.276;2023-02-23T07:49:11;1.60;99.90
12315;DHT22;23886;46.614;14.276;2023-02-23T07:51:38;1.60;99.90
12315;DHT22;23886;46.614;14.276;2023-02-23T07:54:06;1.70;99.90
12315;DHT22;23886;46.614;14.276;2023-02-23T07:56:33;1.70;99.90
12315;DHT22;23886;46.614;14.276;2023-02-23T07:59:00;1.70;99.90
12315;DHT22;23886;46.614;14.276;2023-02-23T08:01:28;1.80;99.90
12315;DHT22;23886;46.614;14.276;2023-02-23T08:03:55;1.80;99.90
12315;DHT22;23886;46.614;14.276;2023-02-23T08:06:22;1.90;99.90
12315;DHT22;23886;46.614;14.276;2023-02-23T08:08:49;1.90;99.90
12315;DHT22;23886;46.614;14.276;2023-02-23T08:11:16;1.90;99.90
12315;DHT22;23886;46.614;14.276;2023-02-23T08:13:43;2.00;99.90
12315;DHT22;23886;46.614;14.276;2023-02-23T08:16:10;2.20;99.90
12315;DHT22;23886;46.614;14.276;2023-02-23T08:18:39;2.20;99.90
12315;DHT22;23886;46.614;14.276;2023-02-23T08:21:06;2.20;99.90
12315;DHT22;23886;46.614;14.276;2023-02-23T08:23:33;2.10;99.90
12315;DHT22;23886;46.614;14.276;2023-02-23T08:26:01;2.40;99.90
12315;DHT22;23886;46.614;14.276;2023-02-23T08:28:28;2.40;99.90
12315;DHT22;23886;46.614;14.276;2023-02-23T08:30:56;2.30;99.90
12315;DHT22;23886;46.614;14.276;2023-02-23T08:33:23;2.30;99.90
12315;DHT22;23886;46.614;14.276;2023-02-23T08:35:52;2.30;99.90
12315;DHT22;23886;46.614;14.276;2023-02-23T08:38:19;2.20;99.90
12315;DHT22;23886;46.614;14.276;2023-02-23T08:40:46;2.30;99.90
12315;DHT22;23886;46.614;14.276;2023-02-23T08:43:13;2.30;99.90
12315;DHT22;23886;46.614;14.276;2023-02-23T08:45:39;2.40;99.90
12315;DHT22;23886;46.614;14.276;2023-02-23T08:48:07;2.50;99.90
12315;DHT22;23886;46.614;14.276;2023-02-23T08:50:34;2.60;99.90
12315;DHT22;23886;46.614;14.276;2023-02-23T08:53:02;2.50;99.90
12315;DHT22;23886;46.614;14.276;2023-02-23T08:55:30;2.50;99.90
12315;DHT22;23886;46.614;14.276;2023-02-23T08:57:58;2.50;99.90
12315;DHT22;23886;46.614;14.276;2023-02-23T09:00:25;2.60;99.90
12315;DHT22;23886;46.614;14.276;2023-02-23T09:02:52;2.60;99.90
12315;DHT22;23886;46.614;14.276;2023-02-23T09:05:19;2.80;99.90
12315;DHT22;23886;46.614;14.276;2023-02-23T09:07:46;2.80;99.90
12315;DHT22;23886;46.614;14.276;2023-02-23T09:10:16;2.70;99.90
12315;DHT22;23886;46.614;14.276;2023-02-23T09:12:44;2.80;99.90
12315;DHT22;23886;46.614;14.276;2023-02-23T09:15:11;2.80;99.90
12315;DHT22;23886;46.614;14.276;2023-02-23T09:17:38;3.00;99.90
12315;DHT22;23886;46.614;14.276;2023-02-23T09:20:08;3.00;99.90
12315;DHT22;23886;46.614;14.276;2023-02-23T09:22:38;3.00;99.90
12315;DHT22;23886;46.614;14.276;2023-02-23T09:25:05;3.10;99.90
12315;DHT22;23886;46.614;14.276;2023-02-23T09:27:34;3.30;99.90
12315;DHT22;23886;46.614;14.276;2023-02-23T09:30:01;3.40;99.90
12315;DHT22;23886;46.614;14.276;2023-02-23T09:32:29;3.30;99.90
12315;DHT22;23886;46.614;14.276;2023-02-23T09:34:56;3.40;99.90
12315;DHT22;23886;46.614;14.276;2023-02-23T09:37:23;3.50;99.90
12315;DHT22;23886;46.614;14.276;2023-02-23T09:39:50;3.70;99.90
12315;DHT22;23886;46.614;14.276;2023-02-23T09:42:34;3.80;99.90
12315;DHT22;23886;46.614;14.276;2023-02-23T09:45:12;3.80;99.90
12315;DHT22;23886;46.614;14.276;2023-02-23T09:47:48;4.00;99.90
12315;DHT22;23886;46.614;14.276;2023-02-23T09:50:20;3.80;99.90
12315;DHT22;23886;46.614;14.276;2023-02-23T09:52:52;3.70;99.90
12315;DHT22;23886;46.614;14.276;2023-02-23T09:55:21;3.60;99.90
12315;DHT22;23886;46.614;14.276;2023-02-23T09:57:49;3.50;99.90
12315;DHT22;23886;46.614;14.276;2023-02-23T10:03:07;3.40;99.90
12315;DHT22;23886;46.614;14.276;2023-02-23T10:05:39;3.40;99.90
12315;DHT22;23886;46.614;14.276;2023-02-23T10:08:21;3.30;99.90
12315;DHT22;23886;46.614;14.276;2023-02-23T10:10:56;3.40;99.90
12315;DHT22;23886;46.614;14.276;2023-02-23T10:13:33;3.50;99.90
12315;DHT22;23886;46.614;14.276;2023-02-23T10:16:14;3.50;99.90
12315;DHT22;23886;46.614;14.276;2023-02-23T10:18:47;3.70;99.90
12315;DHT22;23886;46.614;14.276;2023-02-23T10:21:21;3.80;99.90
12315;DHT22;23886;46.614;14.276;2023-02-23T10:23:52;4.00;99.90
12315;DHT22;23886;46.614;14.276;2023-02-23T10:26:23;4.00;99.90
12315;DHT22;23886;46.614;14.276;2023-02-23T10:28:53;4.00;99.90
12315;DHT22;23886;46.614;14.276;2023-02-23T10:31:26;4.00;99.90
12315;DHT22;23886;46.614;14.276;2023-02-23T10:33:57;3.90;99.90
12315;DHT22;23886;46.614;14.276;2023-02-23T10:36:34;3.90;99.90
12315;DHT22;23886;46.614;14.276;2023-02-23T10:39:04;4.00;99.90
12315;DHT22;23886;46.614;14.276;2023-02-23T10:41:32;4.00;99.90
12315;DHT22;23886;46.614;14.276;2023-02-23T10:44:00;4.00;99.90
12315;DHT22;23886;46.614;14.276;2023-02-23T10:46:33;3.90;99.90
12315;DHT22;23886;46.614;14.276;2023-02-23T10:49:02;4.00;99.90
12315;DHT22;23886;46.614;14.276;2023-02-23T10:51:35;4.00;99.90
12315;DHT22;23886;46.614;14.276;2023-02-23T10:54:33;4.00;99.90
12315;DHT22;23886;46.614;14.276;2023-02-23T10:57:01;4.00;99.90
12315;DHT22;23886;46.614;14.276;2023-02-23T10:59:30;4.00;99.90
12315;DHT22;23886;46.614;14.276;2023-02-23T11:01:57;4.20;99.90
12315;DHT22;23886;46.614;14.276;2023-02-23T11:04:26;4.40;99.90
12315;DHT22;23886;46.614;14.276;2023-02-23T11:07:06;4.50;99.90
12315;DHT22;23886;46.614;14.276;2023-02-23T11:09:34;4.80;99.90
12315;DHT22;23886;46.614;14.276;2023-02-23T11:12:03;4.70;99.90
12315;DHT22;23886;46.614;14.276;2023-02-23T11:14:39;4.50;99.90
12315;DHT22;23886;46.614;14.276;2023-02-23T11:17:25;4.50;99.90
12315;DHT22;23886;46.614;14.276;2023-02-23T11:19:57;4.60;99.90
12315;DHT22;23886;46.614;14.276;2023-02-23T11:22:30;4.70;99.90
12315;DHT22;23886;46.614;14.276;2023-02-23T11:24:59;4.90;99.90
12315;DHT22;23886;46.614;14.276;2023-02-23T11:27:28;5.10;99.90
12315;DHT22;23886;46.614;14.276;2023-02-23T11:29:57;5.10;99.90
12315;DHT22;23886;46.614;14.276;2023-02-23T11:32:32;4.90;99.90
12315;DHT22;23886;46.614;14.276;2023-02-23T11:35:24;5.00;99.90
12315;DHT22;23886;46.614;14.276;2023-02-23T11:37:53;4.80;99.90
12315;DHT22;23886;46.614;14.276;2023-02-23T11:40:22;4.70;99.90
12315;DHT22;23886;46.614;14.276;2023-02-23T11:42:52;4.60;99.90
12315;DHT22;23886;46.614;14.276;2023-02-23T11:45:22;4.60;99.90
12315;DHT22;23886;46.614;14.276;2023-02-23T11:47:51;4.70;99.90
12315;DHT22;23886;46.614;14.276;2023-02-23T11:50:28;4.70;99.90
12315;DHT22;23886;46.614;14.276;2023-02-23T11:53:01;4.50;99.90
12315;DHT22;23886;46.614;14.276;2023-02-23T11:55:30;4.60;99.90
12315;DHT22;23886;46.614;14.276;2023-02-23T11:58:20;4.70;99.90
12315;DHT22;23886;46.614;14.276;2023-02-23T12:00:58;4.70;99.90
12315;DHT22;23886;46.614;14.276;2023-02-23T12:03:27;4.80;99.90
12315;DHT22;23886;46.614;14.276;2023-02-23T12:05:56;4.80;99.90
12315;DHT22;23886;46.614;14.276;2023-02-23T12:08:37;5.10;99.90
12315;DHT22;23886;46.614;14.276;2023-02-23T12:11:09;5.20;99.90
12315;DHT22;23886;46.614;14.276;2023-02-23T12:13:41;5.20;99.90
12315;DHT22;23886;46.614;14.276;2023-02-23T12:16:15;5.40;99.90
12315;DHT22;23886;46.614;14.276;2023-02-23T12:18:47;5.50;99.90
12315;DHT22;23886;46.614;14.276;2023-02-23T12:21:25;5.50;99.90
12315;DHT22;23886;46.614;14.276;2023-02-23T12:24:03;5.70;99.90
12315;DHT22;23886;46.614;14.276;2023-02-23T12:26:33;5.80;99.90
12315;DHT22;23886;46.614;14.276;2023-02-23T12:29:15;5.40;99.90
12315;DHT22;23886;46.614;14.276;2023-02-23T12:31:48;5.20;99.90
12315;DHT22;23886;46.614;14.276;2023-02-23T12:34:20;5.20;99.90
12315;DHT22;23886;46.614;14.276;2023-02-23T12:36:54;5.50;99.90
12315;DHT22;23886;46.614;14.276;2023-02-23T12:39:27;5.90;99.90
12315;DHT22;23886;46.614;14.276;2023-02-23T12:42:03;6.10;99.90
12315;DHT22;23886;46.614;14.276;2023-02-23T12:44:41;6.10;99.90
12315;DHT22;23886;46.614;14.276;2023-02-23T12:47:26;6.10;99.90
12315;DHT22;23886;46.614;14.276;2023-02-23T12:50:00;6.20;99.90
12315;DHT22;23886;46.614;14.276;2023-02-23T12:52:35;6.40;99.90
12315;DHT22;23886;46.614;14.276;2023-02-23T12:55:04;6.90;99.90
12315;DHT22;23886;46.614;14.276;2023-02-23T12:57:41;7.30;99.90
12315;DHT22;23886;46.614;14.276;2023-02-23T13:00:36;7.40;99.90
12315;DHT22;23886;46.614;14.276;2023-02-23T13:03:31;6.90;99.90
12315;DHT22;23886;46.614;14.276;2023-02-23T13:06:08;7.10;99.90
12315;DHT22;23886;46.614;14.276;2023-02-23T13:08:52;7.30;99.90
12315;DHT22;23886;46.614;14.276;2023-02-23T13:11:30;7.40;99.90
12315;DHT22;23886;46.614;14.276;2023-02-23T13:14:03;7.20;99.90
12315;DHT22;23886;46.614;14.276;2023-02-23T13:16:38;7.20;99.90
12315;DHT22;23886;46.614;14.276;2023-02-23T13:19:14;7.20;99.90
12315;DHT22;23886;46.614;14.276;2023-02-23T13:21:49;7.30;99.90
12315;DHT22;23886;46.614;14.276;2023-02-23T13:24:20;6.90;99.90
12315;DHT22;23886;46.614;14.276;2023-02-23T13:26:54;7.00;99.90
12315;DHT22;23886;46.614;14.276;2023-02-23T13:29:31;7.00;99.90
12315;DHT22;23886;46.614;14.276;2023-02-23T13:31:59;7.20;99.90
12315;DHT22;23886;46.614;14.276;2023-02-23T13:34:31;8.00;99.90
12315;DHT22;23886;46.614;14.276;2023-02-23T13:37:03;7.90;99.90
12315;DHT22;23886;46.614;14.276;2023-02-23T13:39:58;8.10;99.90
12315;DHT22;23886;46.614;14.276;2023-02-23T13:42:43;8.30;99.90
12315;DHT22;23886;46.614;14.276;2023-02-23T13:45:29;8.70;99.90
12315;DHT22;23886;46.614;14.276;2023-02-23T13:48:04;9.10;99.90
12315;DHT22;23886;46.614;14.276;2023-02-23T13:50:41;8.40;99.90
12315;DHT22;23886;46.614;14.276;2023-02-23T13:53:33;8.60;99.90
12315;DHT22;23886;46.614;14.276;2023-02-23T13:56:04;8.40;99.90
12315;DHT22;23886;46.614;14.276;2023-02-23T13:58:33;8.20;99.90
12315;DHT22;23886;46.614;14.276;2023-02-23T14:01:09;8.50;99.90
12315;DHT22;23886;46.614;14.276;2023-02-23T14:03:43;9.30;99.90
12315;DHT22;23886;46.614;14.276;2023-02-23T14:06:14;9.00;99.90
12315;DHT22;23886;46.614;14.276;2023-02-23T14:08:42;9.10;99.90
12315;DHT22;23886;46.614;14.276;2023-02-23T14:11:37;9.50;99.90
12315;DHT22;23886;46.614;14.276;2023-02-23T14:14:11;9.10;99.90
12315;DHT22;23886;46.614;14.276;2023-02-23T14:16:39;9.90;99.90
12315;DHT22;23886;46.614;14.276;2023-02-23T14:19:30;9.40;99.90
12315;DHT22;23886;46.614;14.276;2023-02-23T14:22:04;9.30;99.90
12315;DHT22;23886;46.614;14.276;2023-02-23T14:24:34;8.80;99.90
12315;DHT22;23886;46.614;14.276;2023-02-23T14:27:21;9.10;99.90
12315;DHT22;23886;46.614;14.276;2023-02-23T14:30:14;9.40;99.90
12315;DHT22;23886;46.614;14.276;2023-02-23T14:32:43;9.60;99.90
12315;DHT22;23886;46.614;14.276;2023-02-23T14:35:36;9.70;99.90
12315;DHT22;23886;46.614;14.276;2023-02-23T14:38:14;10.20;99.90
12315;DHT22;23886;46.614;14.276;2023-02-23T14:40:44;10.60;99.50
12315;DHT22;23886;46.614;14.276;2023-02-23T14:43:41;10.30;99.00
12315;DHT22;23886;46.614;14.276;2023-02-23T14:46:12;10.20;99.30
12315;DHT22;23886;46.614;14.276;2023-02-23T14:48:44;10.00;99.30
12315;DHT22;23886;46.614;14.276;2023-02-23T14:51:24;10.00;99.40
12315;DHT22;23886;46.614;14.276;2023-02-23T14:53:59;9.90;99.90
12315;DHT22;23886;46.614;14.276;2023-02-23T14:56:26;10.20;99.30
12315;DHT22;23886;46.614;14.276;2023-02-23T14:58:54;9.90;99.90
12315;DHT22;23886;46.614;14.276;2023-02-23T15:01:35;10.70;98.30
12315;DHT22;23886;46.614;14.276;2023-02-23T15:04:07;10.30;98.80
12315;DHT22;23886;46.614;14.276;2023-02-23T15:06:35;10.20;98.30
12315;DHT22;23886;46.614;14.276;2023-02-23T15:09:04;10.00;98.50
12315;DHT22;23886;46.614;14.276;2023-02-23T15:11:31;9.80;99.70
12315;DHT22;23886;46.614;14.276;2023-02-23T15:13:58;10.00;98.30
12315;DHT22;23886;46.614;14.276;2023-02-23T15:16:29;10.40;98.00
12315;DHT22;23886;46.614;14.276;2023-02-23T15:18:57;9.80;98.70
12315;DHT22;23886;46.614;14.276;2023-02-23T15:21:24;9.70;99.40
12315;DHT22;23886;46.614;14.276;2023-02-23T15:23:58;9.80;99.50
12315;DHT22;23886;46.614;14.276;2023-02-23T15:26:33;10.20;98.80
12315;DHT22;23886;46.614;14.276;2023-02-23T15:29:12;9.60;99.00
12315;DHT22;23886;46.614;14.276;2023-02-23T15:31:39;9.10;99.70
12315;DHT22;23886;46.614;14.276;2023-02-23T15:34:14;8.70;99.90
12315;DHT22;23886;46.614;14.276;2023-02-23T15:36:46;8.60;99.90
12315;DHT22;23886;46.614;14.276;2023-02-23T15:39:16;8.60;99.90
12315;DHT22;23886;46.614;14.276;2023-02-23T15:41:47;8.40;99.90
12315;DHT22;23886;46.614;14.276;2023-02-23T15:44:19;8.00;99.90
12315;DHT22;23886;46.614;14.276;2023-02-23T15:46:51;7.60;99.90
12315;DHT22;23886;46.614;14.276;2023-02-23T15:49:20;7.20;99.90
12315;DHT22;23886;46.614;14.276;2023-02-23T15:51:51;7.00;99.90
12315;DHT22;23886;46.614;14.276;2023-02-23T15:54:20;6.70;99.90
12315;DHT22;23886;46.614;14.276;2023-02-23T15:56:55;6.60;99.90
12315;DHT22;23886;46.614;14.276;2023-02-23T15:59:26;6.40;99.90
12315;DHT22;23886;46.614;14.276;2023-02-23T16:01:57;6.20;99.90
12315;DHT22;23886;46.614;14.276;2023-02-23T16:04:27;6.10;99.90
12315;DHT22;23886;46.614;14.276;2023-02-23T16:07:07;5.90;99.90
12315;DHT22;23886;46.614;14.276;2023-02-23T16:09:38;5.80;99.90
12315;DHT22;23886;46.614;14.276;2023-02-23T16:12:11;5.90;99.90